McClellanville, SC (29458)

11:23 AM EDT on August 30, 2015 (GMT -0400)
Georgetown County | | Change Station
CLOSE
Current Station
Airport
Location: Georgetown,
Elevation: 39 ft
Nearby Weather Stations

Elev 39 ft 33.31 °N, 79.32 °W | Updated 8 minutes ago

Overcast
Overcast
77 °F
Feels Like 77 °F
N
5
Wind Variable Wind from NE

Today
High -- | Low -- °F
--% Chance of Precip.
Yesterday
High -- | Low -- °F
Precip. -- in
6:50 AM 7:45 PM
Full, 99% visible
Pressure 30.15 in
Visibility 10.0 miles
Clouds Scattered Clouds 1100 ft
Scattered Clouds 5000 ft
Overcast 10000 ft
Dew Point 77 °F
Humidity 100%
Rainfall 0.11 in
Snow Depth Not available.
UV 3 out of 12
Pollen 2.80 out of 12
Air Quality Not available.
Flu Activity Not available.
METAR KGGE 301515Z AUTO 05004KT 10SM SCT011 SCT050 OVC100 25/25 A3015 RMK AO2
Pressure 30.15 in
Visibility 10.0 miles
Clouds Scattered Clouds 1100 ft
Scattered Clouds 5000 ft
Overcast 10000 ft
Dew Point 77 °F
Humidity 100%
Rainfall 0.11 in
Snow Depth Not available.
UV 3 out of 12
Pollen 2.80 out of 12
Air Quality Not available.
Flu Activity Not available.
METAR KGGE 301515Z AUTO 05004KT 10SM SCT011 SCT050 OVC100 25/25 A3015 RMK AO2

10-Day Weather Forecast

×

Almanac

Astronomy

Aug. 30, 2015 Rise Set
Actual Time
Civil Twilight
Nautical Twilight
Astronomical Twilight
Moon
Length of Visible Light
Length of Day
Tomorrow will be .
, % of the Moon is Illuminated

Today's Extremes

State Highs State Lows

Community

WunderPhotos

Upload Photos

1,850,995 photos uploaded!

WunderBlogs® & News

Nearby

Air Quality

  Air Quality AQ Index Pollutant
Not available.

Snow Depth

Station Depth Elevation

Earthquake Activity

City Distance Mag. Time & Date
Minimum magnitude displayed is 2.5.

Coastal Water Temperatures

Place Temperature

Stations

Nearby Weather Stations

Station Location Temp. Windchill Dew Point Humidity Wind Precip. Elev Updated Type